createdAt,value
2018-02-18T00:02:24.271Z,74.40
2018-02-18T00:04:52.571Z,74.50
2018-02-18T00:07:20.596Z,74.40
2018-02-18T00:09:48.931Z,74.30
2018-02-18T00:12:18.010Z,74.10
2018-02-18T00:14:51.910Z,74.00
2018-02-18T00:17:20.070Z,74.30
2018-02-18T00:19:48.050Z,74.00
2018-02-18T00:22:16.251Z,74.00
2018-02-18T00:24:45.330Z,74.50
2018-02-18T00:27:13.490Z,74.50
2018-02-18T00:29:42.370Z,74.40
2018-02-18T00:32:10.450Z,74.50
2018-02-18T00:34:38.890Z,74.30
2018-02-18T00:37:07.650Z,73.50
2018-02-18T00:39:37.017Z,72.60
2018-02-18T00:42:05.610Z,72.60
2018-02-18T00:44:34.211Z,71.80
2018-02-18T00:47:03.571Z,73.30
2018-02-18T00:49:32.050Z,73.30
2018-02-18T00:52:00.573Z,72.70
2018-02-18T00:54:29.730Z,73.10
2018-02-18T00:56:58.011Z,73.10
2018-02-18T00:59:26.511Z,73.30
2018-02-18T01:01:54.770Z,73.30
2018-02-18T01:04:23.013Z,72.90
2018-02-18T01:06:51.530Z,72.30
2018-02-18T01:09:19.690Z,73.10
2018-02-18T01:11:47.831Z,72.70
2018-02-18T01:14:16.151Z,72.30
2018-02-18T01:16:44.450Z,72.70
2018-02-18T01:19:13.309Z,72.90
2018-02-18T01:21:41.510Z,72.90
2018-02-18T01:24:09.750Z,73.20
2018-02-18T01:26:37.950Z,73.60
2018-02-18T01:29:06.210Z,73.00
2018-02-18T01:31:34.390Z,73.50
2018-02-18T01:34:02.609Z,73.20
2018-02-18T01:36:30.850Z,73.20
2018-02-18T01:38:59.010Z,73.60
2018-02-18T01:41:27.910Z,72.00
2018-02-18T01:43:56.031Z,72.00
2018-02-18T01:46:24.250Z,72.20
2018-02-18T01:48:52.711Z,72.60
2018-02-18T01:51:21.209Z,72.50
2018-02-18T01:53:49.430Z,72.40
2018-02-18T01:56:17.970Z,73.20
2018-02-18T01:58:46.430Z,73.60
2018-02-18T02:01:14.489Z,73.80
2018-02-18T02:03:42.889Z,73.90
2018-02-18T02:06:11.514Z,73.40
2018-02-18T02:08:39.771Z,73.10
2018-02-18T02:11:08.950Z,72.90
2018-02-18T02:13:37.971Z,73.60
2018-02-18T02:16:06.104Z,72.90
2018-02-18T02:18:34.270Z,73.40
2018-02-18T02:21:02.570Z,73.20
2018-02-18T02:23:30.953Z,72.60
2018-02-18T02:25:59.817Z,72.90
2018-02-18T02:28:28.098Z,72.90
2018-02-18T02:30:56.276Z,73.10
2018-02-18T02:33:24.617Z,72.80
2018-02-18T02:35:53.381Z,73.10
2018-02-18T02:38:22.036Z,73.10
2018-02-18T02:40:51.035Z,71.80
2018-02-18T02:43:20.216Z,72.20
2018-02-18T02:45:48.697Z,72.20
2018-02-18T02:48:16.816Z,73.10
2018-02-18T02:50:45.136Z,72.10
2018-02-18T02:53:13.436Z,72.30
2018-02-18T02:55:42.519Z,72.10
2018-02-18T02:58:10.836Z,72.00
2018-02-18T03:00:39.276Z,72.10
2018-02-18T03:03:08.976Z,72.10
2018-02-18T03:05:37.156Z,72.10
2018-02-18T03:08:05.536Z,72.10
2018-02-18T03:10:33.780Z,72.40
2018-02-18T03:13:02.096Z,72.80
2018-02-18T03:15:30.956Z,72.50
2018-02-18T03:17:59.336Z,72.50
2018-02-18T03:20:27.536Z,72.20
2018-02-18T03:22:56.296Z,72.60
2018-02-18T03:25:24.776Z,72.50
2018-02-18T03:27:52.976Z,72.90
2018-02-18T03:30:21.978Z,73.50
2018-02-18T03:32:51.036Z,72.60
2018-02-18T03:35:19.161Z,72.60
2018-02-18T03:37:47.180Z,72.40
2018-02-18T03:40:15.435Z,73.20
2018-02-18T03:42:43.636Z,72.90
2018-02-18T03:45:11.676Z,73.00
2018-02-18T03:47:39.976Z,73.20
2018-02-18T03:50:08.457Z,73.10
2018-02-18T03:52:37.156Z,73.00
2018-02-18T03:55:06.456Z,73.60
2018-02-18T03:57:35.636Z,73.30
2018-02-18T04:00:04.136Z,73.30
2018-02-18T04:02:33.316Z,73.10
2018-02-18T04:05:01.996Z,73.00
2018-02-18T04:07:30.256Z,73.20
2018-02-18T04:09:58.376Z,72.50
2018-02-18T04:12:27.536Z,73.00
2018-02-18T04:14:55.696Z,73.00
2018-02-18T04:17:23.895Z,73.40
2018-02-18T04:19:52.276Z,73.10
2018-02-18T04:22:21.256Z,72.90
2018-02-18T04:24:49.536Z,72.90
2018-02-18T04:27:17.896Z,73.20
2018-02-18T04:29:46.298Z,73.00
2018-02-18T04:32:14.463Z,73.20
2018-02-18T04:34:42.736Z,73.30
2018-02-18T04:37:11.116Z,73.60
2018-02-18T04:39:39.795Z,73.60
2018-02-18T04:42:07.976Z,74.00
2018-02-18T04:44:35.976Z,73.00
2018-02-18T04:47:04.316Z,73.60
2018-02-18T04:49:32.696Z,73.10
2018-02-18T04:52:00.856Z,73.40
2018-02-18T04:54:28.936Z,73.10
2018-02-18T04:56:57.218Z,73.20
2018-02-18T04:59:25.220Z,72.50
2018-02-18T05:01:53.555Z,72.70
2018-02-18T05:04:21.756Z,72.30
2018-02-18T05:06:51.036Z,72.30
2018-02-18T05:09:19.236Z,72.30
2018-02-18T05:11:48.317Z,71.90
2018-02-18T05:14:17.716Z,71.70
2018-02-18T05:16:46.796Z,72.50
2018-02-18T05:19:14.976Z,72.50
2018-02-18T05:21:43.356Z,73.00
2018-02-18T05:24:11.636Z,73.40
2018-02-18T05:26:40.616Z,73.80
2018-02-18T05:29:08.956Z,73.80
2018-02-18T05:31:37.358Z,74.10
2018-02-18T05:34:06.056Z,74.10
2018-02-18T05:36:35.156Z,74.60
2018-02-18T05:39:03.616Z,74.60
2018-02-18T05:41:32.037Z,74.20
2018-02-18T05:44:01.077Z,74.80
2018-02-18T05:46:29.276Z,74.80
2018-02-18T05:48:57.636Z,74.00
2018-02-18T05:51:25.816Z,74.20
2018-02-18T05:53:53.956Z,74.70
2018-02-18T05:56:22.036Z,74.50
2018-02-18T05:58:50.275Z,74.80
2018-02-18T06:01:18.616Z,74.50
2018-02-18T06:03:46.896Z,73.80
2018-02-18T06:06:15.176Z,73.70
2018-02-18T06:08:43.456Z,74.00
2018-02-18T06:11:12.532Z,74.40
2018-02-18T06:13:40.656Z,74.40
2018-02-18T06:16:08.896Z,74.60
2018-02-18T06:18:37.056Z,74.60
2018-02-18T06:21:05.237Z,75.10
2018-02-18T06:23:33.656Z,74.90
2018-02-18T06:26:01.916Z,74.40
2018-02-18T06:28:30.375Z,74.80
2018-02-18T06:30:59.476Z,74.50
2018-02-18T06:33:28.556Z,74.00
2018-02-18T06:35:57.136Z,74.00
2018-02-18T06:38:25.296Z,74.40
2018-02-18T06:40:53.596Z,74.30
2018-02-18T06:43:21.877Z,74.40
2018-02-18T06:45:50.955Z,74.60
2018-02-18T06:48:19.122Z,74.60
2018-02-18T06:50:47.276Z,74.60
2018-02-18T06:53:15.495Z,74.80
2018-02-18T06:55:44.536Z,75.20
2018-02-18T06:58:12.718Z,75.20
2018-02-18T07:00:40.876Z,75.50
2018-02-18T07:03:09.256Z,75.30
2018-02-18T07:05:37.456Z,75.30
2018-02-18T07:08:05.616Z,75.70
2018-02-18T07:10:33.916Z,75.50
2018-02-18T07:13:01.976Z,75.50
2018-02-18T07:15:30.256Z,75.30
2018-02-18T07:17:58.436Z,74.90
2018-02-18T07:20:26.476Z,75.20
2018-02-18T07:22:54.907Z,75.00
2018-02-18T07:25:23.876Z,74.80
2018-02-18T07:27:51.936Z,74.80
2018-02-18T07:30:20.216Z,74.40
2018-02-18T07:32:48.276Z,74.50
2018-02-18T07:35:16.456Z,74.60
2018-02-18T07:37:44.637Z,74.90
2018-02-18T07:40:12.936Z,75.20
2018-02-18T07:42:42.117Z,74.60
2018-02-18T07:45:11.216Z,74.40
2018-02-18T07:47:40.276Z,75.00
2018-02-18T07:50:08.535Z,74.80
2018-02-18T07:52:36.817Z,75.20
2018-02-18T07:55:05.116Z,75.20
2018-02-18T07:57:33.296Z,74.60
2018-02-18T08:00:01.776Z,74.80
2018-02-18T08:02:30.135Z,75.10
2018-02-18T08:04:58.496Z,75.10
2018-02-18T08:07:26.857Z,75.10
2018-02-18T08:09:55.315Z,74.90
2018-02-18T08:12:24.401Z,74.40
2018-02-18T08:14:53.277Z,75.00
2018-02-18T08:17:21.276Z,74.90
2018-02-18T08:19:49.616Z,74.40
2018-02-18T08:22:18.416Z,74.40
2018-02-18T08:24:47.356Z,74.50
2018-02-18T08:27:15.576Z,74.40
2018-02-18T08:29:44.656Z,74.90
2018-02-18T08:32:13.136Z,74.80
2018-02-18T08:34:41.315Z,74.70
2018-02-18T08:37:09.376Z,74.50
2018-02-18T08:39:37.556Z,74.90
2018-02-18T08:42:05.838Z,75.00
2018-02-18T08:44:34.418Z,74.50
2018-02-18T08:47:02.597Z,74.90
2018-02-18T08:49:30.656Z,74.80
2018-02-18T08:51:59.197Z,74.40
2018-02-18T08:54:27.516Z,74.10
2018-02-18T08:56:55.995Z,74.30
2018-02-18T08:59:24.476Z,74.70
2018-02-18T09:01:52.956Z,75.10
2018-02-18T09:04:21.756Z,74.60
2018-02-18T09:06:50.956Z,72.90
2018-02-18T09:09:19.898Z,73.20
2018-02-18T09:11:48.317Z,73.10
2018-02-18T09:14:16.597Z,72.50
2018-02-18T09:16:45.576Z,72.70
2018-02-18T09:19:14.077Z,72.70
2018-02-18T09:21:43.137Z,71.50
2018-02-18T09:24:11.436Z,71.50
2018-02-18T09:26:39.697Z,71.90
2018-02-18T09:29:07.877Z,72.50
2018-02-18T09:31:35.997Z,72.40
2018-02-18T09:34:03.997Z,71.90
2018-02-18T09:36:32.217Z,71.10
2018-02-18T09:39:01.277Z,70.40
2018-02-18T09:41:29.457Z,70.30
2018-02-18T09:43:57.836Z,70.10
2018-02-18T09:46:26.017Z,71.40
2018-02-18T09:48:53.979Z,72.00
2018-02-18T09:51:22.256Z,69.60
2018-02-18T09:53:50.436Z,69.50
2018-02-18T09:56:18.598Z,69.10
2018-02-18T09:58:46.776Z,70.70
2018-02-18T10:01:14.956Z,70.00
2018-02-18T10:03:44.038Z,69.90
2018-02-18T10:06:12.562Z,69.90
2018-02-18T10:08:41.217Z,69.70
2018-02-18T10:11:09.483Z,69.30
2018-02-18T10:13:38.076Z,70.00
2018-02-18T10:16:07.136Z,70.10
2018-02-18T10:18:35.457Z,70.10
2018-02-18T10:21:04.516Z,68.10
2018-02-18T10:23:33.017Z,68.10
2018-02-18T10:26:01.157Z,67.30
2018-02-18T10:28:29.676Z,67.80
2018-02-18T10:30:58.796Z,69.20
2018-02-18T10:33:27.136Z,69.20
2018-02-18T10:35:55.416Z,69.20
2018-02-18T10:38:23.536Z,68.80
2018-02-18T10:40:51.856Z,68.50
2018-02-18T10:43:19.797Z,67.60
2018-02-18T10:45:47.997Z,67.20
2018-02-18T10:48:16.238Z,68.50
2018-02-18T10:50:44.336Z,67.10
2018-02-18T10:53:12.616Z,66.40
2018-02-18T10:55:40.796Z,67.30
2018-02-18T10:58:08.756Z,67.40
2018-02-18T11:00:37.056Z,68.90
2018-02-18T11:03:05.916Z,68.80
2018-02-18T11:05:34.316Z,68.70
2018-02-18T11:08:03.395Z,69.60
2018-02-18T11:10:32.896Z,69.10
2018-02-18T11:13:01.276Z,69.10
2018-02-18T11:15:29.676Z,70.00
2018-02-18T11:17:59.197Z,69.30
2018-02-18T11:20:27.636Z,69.30
2018-02-18T11:22:56.016Z,69.00
2018-02-18T11:25:24.576Z,68.30
2018-02-18T11:27:52.916Z,68.90
2018-02-18T11:30:21.355Z,68.60
2018-02-18T11:32:50.336Z,69.20
2018-02-18T11:35:18.636Z,69.20
2018-02-18T11:37:47.617Z,67.60
2018-02-18T11:40:16.284Z,67.60
2018-02-18T11:42:44.456Z,66.90
2018-02-18T11:45:12.856Z,68.00
2018-02-18T11:47:41.016Z,68.50
2018-02-18T11:50:09.296Z,67.30
2018-02-18T11:52:38.916Z,67.90
2018-02-18T11:55:06.956Z,67.90
2018-02-18T11:57:35.156Z,66.80
2018-02-18T12:00:03.316Z,67.30
2018-02-18T12:02:31.358Z,67.30
2018-02-18T12:04:59.776Z,66.70
2018-02-18T12:07:27.817Z,66.60
2018-02-18T12:09:56.118Z,66.30
2018-02-18T12:12:24.395Z,65.90
2018-02-18T12:14:52.459Z,66.80
2018-02-18T12:17:20.696Z,65.70
2018-02-18T12:19:49.021Z,66.60
2018-02-18T12:22:18.095Z,65.80
2018-02-18T12:24:46.276Z,65.70
2018-02-18T12:27:14.584Z,65.40
2018-02-18T12:29:43.676Z,65.80
2018-02-18T12:32:12.716Z,65.80
2018-02-18T12:34:42.056Z,65.80
2018-02-18T12:37:11.477Z,66.40
2018-02-18T12:39:39.815Z,65.70
2018-02-18T12:42:08.399Z,65.20
2018-02-18T12:44:36.730Z,65.40
2018-02-18T12:47:04.937Z,66.20
2018-02-18T12:49:33.136Z,66.10
2018-02-18T12:52:02.316Z,64.80
2018-02-18T12:54:30.676Z,64.80
2018-02-18T12:56:59.796Z,64.20
2018-02-18T12:59:27.997Z,64.20
2018-02-18T13:01:57.076Z,65.90
2018-02-18T13:04:26.255Z,64.80
2018-02-18T13:06:54.536Z,64.80
2018-02-18T13:11:58.016Z,66.50
2018-02-18T13:14:26.368Z,66.50
2018-02-18T13:16:54.696Z,67.70
2018-02-18T13:19:22.975Z,68.00
2018-02-18T13:21:51.276Z,68.10
2018-02-18T13:24:20.376Z,68.40
2018-02-18T13:26:49.436Z,67.90
2018-02-18T13:29:17.616Z,67.90
2018-02-18T13:31:45.996Z,67.80
2018-02-18T13:34:14.276Z,66.30
2018-02-18T13:36:42.356Z,65.80
2018-02-18T13:39:11.643Z,66.70
2018-02-18T13:41:40.135Z,66.70
2018-02-18T13:44:09.477Z,66.20
2018-02-18T13:46:38.216Z,66.20
2018-02-18T13:49:07.296Z,64.20
2018-02-18T13:51:36.236Z,64.20
2018-02-18T13:54:05.004Z,64.10
2018-02-18T13:56:34.176Z,64.20
2018-02-18T13:59:02.538Z,64.20
2018-02-18T14:01:31.516Z,65.60
2018-02-18T14:03:59.817Z,64.20
2018-02-18T14:06:28.176Z,65.20
2018-02-18T14:08:56.357Z,66.40
2018-02-18T14:11:24.441Z,66.50
2018-02-18T14:13:52.856Z,65.90
2018-02-18T14:16:21.204Z,66.00
2018-02-18T14:18:49.375Z,65.30
2018-02-18T14:21:17.559Z,65.40
2018-02-18T14:23:46.742Z,64.40
2018-02-18T14:26:15.036Z,64.30
2018-02-18T14:28:44.116Z,65.60
2018-02-18T14:31:12.456Z,65.60
2018-02-18T14:33:40.776Z,66.60
2018-02-18T14:36:09.856Z,67.00
2018-02-18T14:38:38.139Z,66.90
2018-02-18T14:41:06.417Z,65.30
2018-02-18T14:43:46.356Z,65.20
2018-02-18T14:46:26.416Z,64.90
2018-02-18T14:49:06.196Z,64.70
2018-02-18T14:51:46.436Z,64.40
2018-02-18T14:54:39.916Z,65.20
2018-02-18T14:57:29.857Z,65.90
2018-02-18T14:59:58.356Z,65.90
2018-02-18T15:02:27.516Z,65.30
2018-02-18T15:04:55.716Z,65.10
2018-02-18T15:07:24.700Z,64.80
2018-02-18T15:09:53.096Z,65.20
2018-02-18T15:12:22.278Z,66.60
2018-02-18T15:14:50.499Z,66.60
2018-02-18T15:17:18.617Z,65.40
2018-02-18T15:19:46.796Z,65.10
2018-02-18T15:22:15.175Z,65.10
2018-02-18T15:24:43.456Z,65.30
2018-02-18T15:27:11.840Z,64.90
2018-02-18T15:29:41.140Z,65.40
2018-02-18T15:32:10.116Z,66.60
2018-02-18T15:34:38.404Z,66.50
2018-02-18T15:37:06.816Z,67.30
2018-02-18T15:39:35.156Z,67.00
2018-02-18T15:42:03.380Z,67.00
2018-02-18T15:44:31.596Z,67.60
2018-02-18T15:47:00.033Z,67.10
2018-02-18T15:49:28.457Z,67.60
2018-02-18T15:51:56.736Z,67.30
2018-02-18T15:54:24.897Z,67.30
2018-02-18T15:56:53.316Z,67.80
2018-02-18T15:59:21.536Z,67.90
2018-02-18T16:01:50.261Z,67.10
2018-02-18T16:04:19.296Z,65.80
2018-02-18T16:06:47.716Z,65.80
2018-02-18T16:09:16.616Z,66.70
2018-02-18T16:11:45.916Z,65.70
2018-02-18T16:14:14.237Z,65.60
2018-02-18T16:16:42.658Z,66.10
2018-02-18T16:19:10.936Z,66.00
2018-02-18T16:21:39.016Z,65.90
2018-02-18T16:24:08.196Z,66.70
2018-02-18T16:26:36.356Z,66.70
2018-02-18T16:29:04.556Z,66.80
2018-02-18T16:31:33.657Z,67.10
2018-02-18T16:34:02.536Z,66.50
2018-02-18T16:36:31.635Z,66.50
2018-02-18T16:39:00.616Z,66.90
2018-02-18T16:41:28.796Z,66.90
2018-02-18T16:43:57.176Z,68.60
2018-02-18T16:46:25.339Z,69.70
2018-02-18T16:48:53.536Z,70.70
2018-02-18T16:51:22.395Z,69.00
2018-02-18T16:53:50.556Z,69.00
2018-02-18T16:56:18.957Z,66.90
2018-02-18T16:58:47.335Z,66.50
2018-02-18T17:01:15.397Z,66.70
2018-02-18T17:03:43.576Z,66.20
2018-02-18T17:06:11.756Z,66.00
2018-02-18T17:08:40.236Z,65.90
2018-02-18T17:11:08.376Z,66.50
2018-02-18T17:13:36.676Z,66.70
2018-02-18T17:16:05.876Z,65.60
2018-02-18T17:18:34.156Z,65.70
2018-02-18T17:21:03.457Z,66.00
2018-02-18T17:23:31.796Z,66.00
2018-02-18T17:26:00.316Z,67.50
2018-02-18T17:28:28.456Z,68.60
2018-02-18T17:30:56.956Z,68.80
2018-02-18T17:33:25.416Z,68.80
2018-02-18T17:35:53.836Z,69.40
2018-02-18T17:38:23.257Z,69.50
2018-02-18T17:40:51.597Z,69.40
2018-02-18T17:43:19.616Z,69.70
2018-02-18T17:45:47.839Z,70.20
2018-02-18T17:48:16.017Z,70.30
2018-02-18T17:50:44.977Z,69.80
2018-02-18T17:53:13.277Z,69.90
2018-02-18T17:55:41.557Z,70.20
2018-02-18T17:58:09.996Z,70.80
2018-02-18T18:00:38.237Z,71.00
2018-02-18T18:03:07.296Z,70.10
2018-02-18T18:05:35.477Z,70.10
2018-02-18T18:08:03.557Z,69.30
2018-02-18T18:10:31.717Z,69.10
2018-02-18T18:12:59.897Z,68.60
2018-02-18T18:15:28.277Z,69.40
2018-02-18T18:17:56.331Z,70.30
2018-02-18T18:20:24.511Z,70.70
2018-02-18T18:22:52.912Z,70.90
2018-02-18T18:25:21.896Z,71.10
2018-02-18T18:27:50.132Z,71.10
2018-02-18T18:30:18.471Z,71.00
2018-02-18T18:32:46.551Z,71.10
2018-02-18T18:35:14.672Z,71.20
2018-02-18T18:37:42.993Z,70.90
2018-02-18T18:40:11.561Z,70.90
2018-02-18T18:42:40.759Z,71.10
2018-02-18T18:45:10.101Z,71.10
2018-02-18T18:47:38.421Z,71.10
2018-02-18T18:50:07.400Z,71.20
2018-02-18T18:52:35.839Z,71.20
2018-02-18T18:55:04.561Z,71.10
2018-02-18T18:57:32.820Z,71.10
2018-02-18T19:00:01.220Z,70.80
2018-02-18T19:02:29.479Z,70.80
2018-02-18T19:04:57.760Z,70.60
2018-02-18T19:07:26.060Z,70.70
2018-02-18T19:09:54.381Z,70.90
2018-02-18T19:12:22.482Z,70.90
2018-02-18T19:14:50.800Z,71.00
2018-02-18T19:17:19.642Z,71.20
2018-02-18T19:19:48.139Z,71.20
2018-02-18T19:22:16.420Z,71.20
2018-02-18T19:24:44.499Z,71.40
2018-02-18T19:27:13.600Z,71.80
2018-02-18T19:29:42.481Z,71.50
2018-02-18T19:32:10.640Z,71.50
2018-02-18T19:34:38.820Z,71.50
2018-02-18T19:37:07.300Z,71.50
2018-02-18T19:39:35.481Z,72.20
2018-02-18T19:42:03.639Z,71.60
2018-02-18T19:44:31.911Z,71.50
2018-02-18T19:47:00.260Z,71.50
2018-02-18T19:49:28.679Z,71.80
2018-02-18T19:51:57.581Z,71.90
2018-02-18T19:54:26.966Z,71.60
2018-02-18T19:56:55.259Z,71.60
2018-02-18T19:59:24.484Z,71.00
2018-02-18T20:01:52.780Z,71.00
2018-02-18T20:04:21.239Z,70.90
2018-02-18T20:06:49.781Z,71.10
2018-02-18T20:09:18.139Z,70.80
2018-02-18T20:11:46.562Z,70.80
2018-02-18T20:14:15.720Z,71.20
2018-02-18T20:16:44.222Z,71.30
2018-02-18T20:19:13.021Z,71.50
2018-02-18T20:21:41.981Z,71.30
2018-02-18T20:24:10.182Z,71.20
2018-02-18T20:26:38.999Z,70.90
2018-02-18T20:29:07.540Z,70.90
2018-02-18T20:31:35.799Z,71.10
2018-02-18T20:34:04.708Z,71.30
2018-02-18T20:36:33.720Z,71.20
2018-02-18T20:39:02.880Z,71.60
2018-02-18T20:41:31.260Z,72.00
2018-02-18T20:43:59.540Z,71.50
2018-02-18T20:46:27.921Z,71.30
2018-02-18T20:48:56.600Z,71.40
2018-02-18T20:51:24.985Z,71.40
2018-02-18T20:53:53.360Z,71.30
2018-02-18T20:56:21.960Z,71.30
2018-02-18T20:58:51.421Z,71.00
2018-02-18T21:01:19.779Z,71.00
2018-02-18T21:03:48.322Z,70.40
2018-02-18T21:06:17.661Z,70.60
2018-02-18T21:08:46.206Z,70.60
2018-02-18T21:11:15.527Z,69.90
2018-02-18T21:13:44.181Z,69.90
2018-02-18T21:16:13.580Z,70.00
2018-02-18T21:18:42.020Z,69.90
2018-02-18T21:21:10.340Z,69.90
2018-02-18T21:23:39.540Z,70.10
2018-02-18T21:26:09.042Z,70.20
2018-02-18T21:28:38.221Z,69.90
2018-02-18T21:31:06.380Z,69.80
2018-02-18T21:33:34.960Z,69.70
2018-02-18T21:36:03.139Z,69.40
2018-02-18T21:38:31.639Z,69.60
2018-02-18T21:41:00.779Z,70.20
2018-02-18T21:43:28.920Z,70.10
2018-02-18T21:45:58.163Z,70.50
2018-02-18T21:48:26.679Z,70.40
2018-02-18T21:50:55.060Z,70.50
2018-02-18T21:53:23.440Z,70.90
2018-02-18T21:55:51.499Z,71.10
2018-02-18T21:58:19.567Z,71.70
2018-02-18T22:00:47.761Z,71.20
2018-02-18T22:03:16.900Z,71.60
2018-02-18T22:05:45.561Z,70.90
2018-02-18T22:08:14.039Z,71.30
2018-02-18T22:10:43.220Z,71.20
2018-02-18T22:13:12.462Z,71.40
2018-02-18T22:15:40.881Z,71.30
2018-02-18T22:18:09.300Z,71.20
2018-02-18T22:20:37.839Z,71.00
2018-02-18T22:23:06.019Z,70.90
2018-02-18T22:25:34.561Z,71.10
2018-02-18T22:28:02.879Z,71.10
2018-02-18T22:30:31.039Z,70.40
2018-02-18T22:32:59.419Z,70.30
2018-02-18T22:35:27.800Z,70.10
2018-02-18T22:37:56.079Z,70.60
2018-02-18T22:40:24.459Z,70.90
2018-02-18T22:42:52.539Z,70.80
2018-02-18T22:45:21.340Z,70.80
2018-02-18T22:47:50.519Z,71.00
2018-02-18T22:50:18.799Z,70.90
2018-02-18T22:52:47.659Z,71.50
2018-02-18T22:55:15.779Z,71.50
2018-02-18T22:57:44.119Z,71.70
2018-02-18T23:00:18.539Z,71.70
2018-02-18T23:02:46.700Z,71.70
2018-02-18T23:05:20.559Z,71.50
2018-02-18T23:07:48.839Z,71.50
2018-02-18T23:10:16.959Z,71.60
2018-02-18T23:12:45.259Z,71.70
2018-02-18T23:15:14.239Z,72.00
2018-02-18T23:17:42.541Z,72.00
2018-02-18T23:20:11.640Z,71.90
2018-02-18T23:22:40.041Z,71.90
2018-02-18T23:25:08.800Z,71.70
2018-02-18T23:27:37.880Z,71.40
2018-02-18T23:30:06.959Z,71.00
2018-02-18T23:32:35.399Z,71.00
2018-02-18T23:35:03.601Z,70.90
2018-02-18T23:37:31.960Z,70.80
2018-02-18T23:40:00.408Z,70.80
2018-02-18T23:42:28.740Z,70.90
2018-02-18T23:44:57.221Z,70.80
2018-02-18T23:47:25.699Z,71.00
2018-02-18T23:49:54.059Z,71.00
2018-02-18T23:52:22.579Z,70.50
2018-02-18T23:54:51.660Z,70.00
2018-02-18T23:57:19.799Z,69.90
2018-02-18T23:59:47.919Z,69.70
